Elk City, Idaho
Current Conditions -  °F | °C
As of 5:35 PM on Thursday 27 Nov 2014 (Local Time) from KGIC Reporting Station
Broken Clouds Broken Clouds  
Wind Chill: 10°   Ceiling: 5500
Heat Index: 10°   Visibility: 10mi
Dew Point:   Wind: 25mph
Humidity: 61%   Direction: 200°SSW
Pressure: 29.94"   Gusts: 38mph
Location:  45.83°N, 115.44°W
Report Text: KGIC 280135Z AUTO 20022G33KT 10SM SCT049 BKN055 BKN070 10/03 A2994 RMK AO1 T01020030
Loading
Personal Weather Stations






























Interactive Weather Map New forecast layout! Learn more

10-Day Weather Forecast

Advertisements
Track Severe Weather on mobile